Nearby METAR Reports

 

KCFV - Coffeyville, Kansas, USA
Distance from station: ENE 93mi, 150km
Updated: Wed, 12-02-2020 2:52am CST
Overcast
Overcast
 Wind from E
Wind: E 3 mph , 6 km/h
Temperature: 36°F , 2°C
Dew Point: 27°F , -3°C
Humidity: 70%
Barometer: 1021 hPa
Clouds: Overcast
Visibility: 10 miles , 16 km
Cloud details: Overcast 10000 ft
2020/12/02 08:52 KCFV 020852Z AUTO 09003KT 10SM OVC100 02/M03 A3015 RMK AO2 SLP211 T00221033 53005
KIDP - Independence, Kansas, USA
Distance from station: NE 86mi, 138km
Updated: Wed, 12-02-2020 2:55am CST
Overcast
Overcast
 Wind from ENE
Wind: ENE 5 mph , 7 km/h
Temperature: 34°F , 1°C
Wind Chill: 29°F , -2°C
Dew Point: 25°F , -4°C
Humidity: 70%
Barometer: 1021 hPa
Clouds: Overcast
Visibility: 10 miles , 16 km
Cloud details: Overcast 11000 ft
2020/12/02 08:55 KIDP 020855Z AUTO 07004KT 10SM OVC110 01/M04 A3015 RMK AO2 T00131036
KIAB - Mcconnell Afb, Kansas, USA
Distance from station: N 84mi, 135km
Updated: Wed, 12-02-2020 2:56am CST
Overcast
Overcast
 Wind from ESE
Wind: ESE 6 mph , 9 km/h
Temperature: 37°F , 3°C
Wind Chill: 32°F , 0°C
Dew Point: 21°F , -6°C
Humidity: 52%
Barometer: 1019.3 hPa
Clouds: Overcast
Visibility: 10 miles , 16 km
Cloud details: Overcast 8000 ft
2020/12/02 08:56 KIAB 020856Z AUTO 12005KT 10SM OVC080 03/M06 A3010 RMK AO2 SLP200 T00331064 52009 $
 
KICT - Wichita, Kansas, USA
Distance from station: NNW 88mi, 142km
Updated: Wed, 12-02-2020 2:53am CST
Overcast
Overcast
 Wind from calm
Wind: Calm
Temperature: 32°F , 0°C
Dew Point: 25°F , -4°C
Humidity: 75%
Barometer: 1019.3 hPa
Clouds: Overcast
Visibility: 10 miles , 16 km
Cloud details: Partly cloudy 8000 ft
Overcast 9500 ft
2020/12/02 08:53 KICT 020853Z 00000KT 10SM SCT080 OVC095 00/M04 A3010 RMK AO2 SLP199 T00001044 53009
KAAO - Wichita/Jabara, Kansas, USA
Distance from station: N 93mi, 149km
Updated: Wed, 12-02-2020 2:54am CST
Overcast
Overcast
 Wind from E
Wind: E 3 mph , 6 km/h
Temperature: 30°F , -1°C
Dew Point: 21°F , -6°C
Humidity: 69%
Barometer: 1019.6 hPa
Clouds: Overcast
Visibility: 10 miles , 16 km
Cloud details: Overcast 9000 ft
2020/12/02 08:54 KAAO 020854Z AUTO 10003KT 10SM OVC090 M01/M06 A3011 RMK AO2 SLP204 T10061056 53010
KWLD - Winfield/Arkansa, Kansas, USA
Distance from station: N 52mi, 84km
Updated: Wed, 12-02-2020 2:54am CST
Overcast
Overcast
 Wind from E
Wind: E 5 mph , 7 km/h
Temperature: 37°F , 3°C
Wind Chill: 33°F , 1°C
Dew Point: 23°F , -5°C
Humidity: 56%
Barometer: 1020 hPa
Clouds: Overcast
Visibility: 10 miles , 16 km
Cloud details: Overcast 9000 ft
2020/12/02 08:54 KWLD 020854Z AUTO 09004KT 10SM OVC090 03/M05 A3012 RMK AO2 SLP201 T00281050 53009
 
KAVK - Alva, Oklahoma, USA
Distance from station: WNW 94mi, 152km
Updated: Wed, 12-02-2020 2:55am CST
Overcast
Overcast
 Wind from N
Wind: N 12 mph , 19 km/h
Temperature: 37°F , 3°C
Wind Chill: 29°F , -2°C
Dew Point: 30°F , -1°C
Humidity: 75%
Barometer: 1018.6 hPa
Clouds: Overcast
Visibility: 10 miles , 16 km
Cloud details: Overcast 7500 ft
2020/12/02 08:55 KAVK 020855Z AUTO 01010KT 10SM OVC075 03/M01 A3008 RMK AO2 PWINO TSNO
KBVO - Bartlesville, Oklahoma, USA
Distance from station: ENE 61mi, 98km
Updated: Wed, 12-02-2020 2:53am CST
Overcast
Overcast
 Wind from calm
Wind: Calm
Temperature: 30°F , -1°C
Dew Point: 27°F , -3°C
Humidity: 86%
Barometer: 1021 hPa
Clouds: Overcast
Visibility: 10 miles , 16 km
Cloud details: Overcast 11000 ft
2020/12/02 08:53 KBVO 020853Z AUTO 00000KT 10SM OVC110 M01/M03 A3015 RMK AO2 SLP208 T10061028 53006
KBKN - Blackwell, Oklahoma, USA
Distance from station: NW 29mi, 47km
Updated: Wed, 12-02-2020 2:55am CST
Overcast
Overcast
 Wind from E
Wind: E 6 mph , 9 km/h
Temperature: 37°F , 3°C
Wind Chill: 32°F , 0°C
Dew Point: 28°F , -2°C
Humidity: 70%
Barometer: 1019 hPa
Clouds: Overcast
Visibility: 10 miles , 16 km
Cloud details: Mostly cloudy 7000 ft
Mostly cloudy 8000 ft
Overcast 9500 ft
2020/12/02 08:55 KBKN 020855Z AUTO 08005KT 10SM BKN070 BKN080 OVC095 03/M02 A3009 RMK AO2
 
KGCM - Claremore, Oklahoma, USA
Distance from station: E 86mi, 138km
Updated: Wed, 12-02-2020 2:55am CST
Overcast
Overcast
 Wind from ESE
Wind: ESE 5 mph , 7 km/h
Temperature: 41°F , 5°C
Wind Chill: 38°F , 3°C
Dew Point: 19°F , -7°C
Humidity: 42%
Barometer: 1021.3 hPa
Clouds: Overcast
Visibility: 10 miles , 16 km
Cloud details: Overcast 9500 ft
2020/12/02 08:55 KGCM 020855Z AUTO 11004KT 10SM OVC095 05/M07 A3016 RMK AO2
KCQB - Chandler, Oklahoma, USA
Distance from station: SSE 50mi, 80km
Updated: Wed, 12-02-2020 2:55am CST
Overcast
Overcast
 Wind from ESE
Wind: ESE 6 mph , 9 km/h
Temperature: 36°F , 2°C
Wind Chill: 31°F , -1°C
Dew Point: 23°F , -5°C
Humidity: 60%
Barometer: 1018.3 hPa
Clouds: Overcast
Visibility: 10 miles , 16 km
Cloud details: Overcast 9000 ft
2020/12/02 08:55 KCQB 020855Z AUTO 11005KT 10SM OVC090 02/M05 A3007 RMK AO2 T00241055
KCUH - Cushing, Oklahoma, USA
Distance from station: SSE 35mi, 57km
Updated: Wed, 12-02-2020 2:55am CST
Overcast
Overcast
 Wind from SE
Wind: SE 6 mph , 9 km/h
Temperature: 41°F , 5°C
Wind Chill: 37°F , 3°C
Dew Point: 23°F , -5°C
Humidity: 49%
Barometer: 1018.6 hPa
Clouds: Overcast
Visibility: 10 miles , 16 km
Cloud details: Overcast 9000 ft
2020/12/02 08:55 KCUH 020855Z AUTO 13005KT 10SM OVC090 05/M05 A3008 RMK AO2 T00461051
 
KRQO - El Reno Muni, Oklahoma, USA
Distance from station: SW 85mi, 137km
Updated: Wed, 12-02-2020 2:50am CST
Overcast
Overcast
 Wind from SE
Wind: SE 5 mph , 7 km/h
Temperature: 41°F , 5°C
Wind Chill: 38°F , 3°C
Dew Point: 28°F , -2°C
Humidity: 61%
Barometer: 1016.9 hPa
Clouds: Overcast
Visibility: 10 miles , 16 km
Cloud details: Mostly cloudy 9000 ft
Overcast 12000 ft
2020/12/02 08:50 KRQO 020850Z AUTO 14004KT 10SM BKN090 OVC120 05/M02 A3003 RMK AO2 T00481025
KEND - Enid/Vance Afb, Oklahoma, USA
Distance from station: W 50mi, 81km
Updated: Wed, 12-02-2020 2:56am CST
Overcast
Overcast
 Wind from ENE
Wind: ENE 7 mph , 11 km/h
Temperature: 41°F , 5°C
Wind Chill: 36°F , 2°C
Dew Point: 25°F , -4°C
Humidity: 53%
Barometer: 1017.6 hPa
Clouds: Overcast
Visibility: 10 miles , 16 km
Cloud details: Overcast 8000 ft
2020/12/02 08:56 KEND 020856Z AUTO 07006KT 10SM OVC080 05/M04 A3005 RMK AO2 SLP179 T00511040 53007 $
KWDG - Enid/Woodring, Oklahoma, USA
Distance from station: W 42mi, 67km
Updated: Wed, 12-02-2020 2:55am CST
Overcast
Overcast
 Wind from E
Wind: E 5 mph , 7 km/h
Temperature: 41°F , 5°C
Wind Chill: 38°F , 3°C
Dew Point: 27°F , -3°C
Humidity: 57%
Barometer: 1017.9 hPa
Clouds: Overcast
Visibility: 10 miles , 16 km
Cloud details: Overcast 8500 ft
2020/12/02 08:55 KWDG 020855Z AUTO 09004KT 10SM OVC085 05/M03 A3006 RMK AO2
 
KGOK - Guthrie, Oklahoma, USA
Distance from station: SSW 44mi, 71km
Updated: Wed, 12-02-2020 2:53am CST
Overcast
Overcast
 Wind from SE
Wind: SE 8 mph , 13 km/h
Temperature: 41°F , 5°C
Wind Chill: 36°F , 2°C
Dew Point: 21°F , -6°C
Humidity: 45%
Barometer: 1017.3 hPa
Clouds: Overcast
Visibility: 10 miles , 16 km
Cloud details: Overcast 11000 ft
2020/12/02 08:53 KGOK 020853Z AUTO 13007KT 10SM OVC110 05/M06 A3004 RMK AO2 SLP176 T00501056 53001
KOUN - Norman/Westheime, Oklahoma, USA
Distance from station: SSW 84mi, 136km
Updated: Wed, 12-02-2020 2:55am CST
Overcast
Overcast
 Wind from SE
Wind: SE 10 mph , 17 km/h
Temperature: 41°F , 5°C
Wind Chill: 35°F , 2°C
Dew Point: 27°F , -3°C
Humidity: 57%
Barometer: 1016.3 hPa
Clouds: Overcast
Visibility: 10 miles , 16 km
Cloud details: Overcast 11000 ft
2020/12/02 08:55 KOUN 020855Z AUTO 13009KT 10SM OVC110 05/M03 A3001 RMK AO2 T00491035
KOKC - Oklahoma City, Oklahoma, USA
Distance from station: SSW 78mi, 126km
Updated: Wed, 12-02-2020 2:52am CST
Mostly cloudy
Mostly cloudy
 Wind from SE
Wind: SE 16 mph , 26 km/h
Temperature: 39°F , 4°C
Wind Chill: 30°F , -1°C
Dew Point: 25°F , -4°C
Humidity: 56%
Barometer: 1016.6 hPa
Clouds: Mostly cloudy
Visibility: 10 miles , 16 km
Cloud details: Mostly cloudy 10000 ft
2020/12/02 08:52 KOKC 020852Z 14014KT 10SM BKN100 04/M04 A3002 RMK AO2 SLP164 T00441044 55002
 
KPWA - Okla City/Wiley, Oklahoma, USA
Distance from station: SSW 70mi, 113km
Updated: Wed, 12-02-2020 2:53am CST
Overcast
Overcast
 Wind from SE
Wind: SE 18 mph , 30 km/h, Gust: 26 mph , 43 km/h
Temperature: 45°F , 7°C
Wind Chill: 37°F , 3°C
Dew Point: 25°F , -4°C
Humidity: 46%
Barometer: 1015.9 hPa
Clouds: Overcast
Visibility: 10 miles , 16 km
Cloud details: Overcast 11000 ft
2020/12/02 08:53 KPWA 020853Z AUTO 14016G23KT 10SM OVC110 07/M04 A3000 RMK AO2 SLP159 T00721039 55004
KRCE - Okla City/Page, Oklahoma, USA
Distance from station: SW 78mi, 126km
Updated: Wed, 12-02-2020 2:55am CST
Overcast
Overcast
 Wind from SE
Wind: SE 18 mph , 30 km/h, Gust: 25 mph , 41 km/h
Temperature: 43°F , 6°C
Wind Chill: 35°F , 2°C
Dew Point: 25°F , -4°C
Humidity: 49%
Barometer: 1015.9 hPa
Clouds: Overcast
Visibility: 10 miles , 16 km
Cloud details: Partly cloudy 8000 ft
Overcast 9000 ft
2020/12/02 08:55 KRCE 020855Z AUTO 14016G22KT 10SM SCT080 OVC090 06/M04 A3000 RMK AO2
KOKM - Okmulgee, Oklahoma, USA
Distance from station: SE 79mi, 127km
Updated: Wed, 12-02-2020 2:55am CST

 
2020/12/02 08:55 KOKM 020855Z AUTO RMK AO2 6//// PWINO PNO TSNO
 
KPNC - Ponca City, Oklahoma, USA
Distance from station: N 22mi, 36km
Updated: Wed, 12-02-2020 2:53am CST
Overcast
Overcast
 Wind from ESE
Wind: ESE 8 mph , 13 km/h
Temperature: 43°F , 6°C
Wind Chill: 38°F , 3°C
Dew Point: 25°F , -4°C
Humidity: 49%
Barometer: 1019 hPa
Clouds: Overcast
Visibility: 10 miles , 16 km
Cloud details: Overcast 10000 ft
2020/12/02 08:53 KPNC 020853Z AUTO 12007KT 10SM OVC100 06/M04 A3009 RMK AO2 SLP189 T00561044 53004
KSNL - Shawnee, Oklahoma, USA
Distance from station: S 74mi, 119km
Updated: Wed, 12-02-2020 2:55am CST
Clear
Clear
 Wind from SE
Wind: SE 9 mph , 15 km/h
Temperature: 39°F , 4°C
Wind Chill: 33°F , 1°C
Dew Point: 21°F , -6°C
Humidity: 48%
Barometer: 1017.9 hPa
Clouds: Clear
Visibility: 10 miles , 16 km
2020/12/02 08:55 KSNL 020855Z AUTO 14008KT 10SM CLR 04/M06 A3006 RMK AO2 T00421064
KSWO - Stillwater, Oklahoma, USA
Distance from station: S 17mi, 28km
Updated: Wed, 12-02-2020 2:53am CST
Overcast
Overcast
 Wind from ESE
Wind: ESE 10 mph , 17 km/h
Temperature: 43°F , 6°C
Wind Chill: 37°F , 3°C
Dew Point: 23°F , -5°C
Humidity: 46%
Barometer: 1018.3 hPa
Clouds: Overcast
Visibility: 10 miles , 16 km
Cloud details: Overcast 10000 ft
2020/12/02 08:53 KSWO 020853Z AUTO 11009KT 10SM OVC100 06/M05 A3007 RMK AO2 SLP180 T00561050 56001 $
 
KTIK - Tinker Afb, Oklahoma, USA
Distance from station: SSW 72mi, 115km
Updated: Wed, 12-02-2020 2:56am CST
Overcast
Overcast
 Wind from SE
Wind: SE 13 mph , 20 km/h
Temperature: 41°F , 5°C
Wind Chill: 34°F , 1°C
Dew Point: 25°F , -4°C
Humidity: 53%
Barometer: 1016.6 hPa
Clouds: Overcast
Visibility: 10 miles , 16 km
Cloud details: Overcast 10000 ft
2020/12/02 08:56 KTIK 020856Z AUTO 14011KT 10SM OVC100 05/M04 A3002 RMK AO2 SLP174 T00511045 55003 $
KTUL - Tulsa, Oklahoma, USA
Distance from station: ESE 65mi, 105km
Updated: Wed, 12-02-2020 2:53am CST
Mostly cloudy
Mostly cloudy
 Wind from ESE
Wind: ESE 8 mph , 13 km/h
Temperature: 43°F , 6°C
Wind Chill: 38°F , 3°C
Dew Point: 25°F , -4°C
Humidity: 49%
Barometer: 1020.3 hPa
Clouds: Mostly cloudy
Visibility: 10 miles , 16 km
Cloud details: Mostly cloudy 10000 ft
2020/12/02 08:53 KTUL 020853Z 11007KT 10SM BKN100 06/M04 A3013 RMK AO2 SLP202 T00561044 53002